Time;durP1;ratioP1;P1;durP2;ratioP2;P2;SDS_P1;SDS_P2;PMS_P1;PMS_P2;Temp;Humidity;BMP_temperature;BMP_pressure;BME280_temperature;BME280_humidity;BME280_pressure;Samples;Min_cycle;Max_cycle;Signal;HPM_P1;HPM_P2
2022/05/26 00:02:06;;;;;;;2.70;1.33;;;;;;;15.50;56.95;98557.38;5056038;28;20229;-70
2022/05/26 00:04:32;;;;;;;2.30;1.50;;;;;;;15.46;57.60;98558.88;5056186;28;20209;-70
2022/05/26 00:06:59;;;;;;;4.03;1.30;;;;;;;15.42;57.26;98566.59;5056070;28;20201;-70
2022/05/26 00:09:26;;;;;;;2.27;1.30;;;;;;;15.43;57.64;98559.38;5055986;28;20221;-70
2022/05/26 00:11:52;;;;;;;1.73;1.10;;;;;;;15.47;57.00;98563.22;5056807;28;20205;-71
2022/05/26 00:14:19;;;;;;;0.90;0.90;;;;;;;15.54;57.02;98563.88;5055981;28;20212;-70
2022/05/26 00:16:47;;;;;;;1.90;0.90;;;;;;;15.58;56.58;98567.72;5055613;28;20205;-70
2022/05/26 00:19:16;;;;;;;2.00;0.90;;;;;;;15.61;56.68;98569.94;5055595;28;20232;-70
2022/05/26 00:21:43;;;;;;;1.77;1.00;;;;;;;15.59;57.08;98570.16;5055734;28;20205;-70
2022/05/26 00:24:10;;;;;;;1.63;0.80;;;;;;;15.58;57.35;98575.75;5056255;28;20216;-70
2022/05/26 00:26:37;;;;;;;0.90;0.70;;;;;;;15.62;57.66;98568.88;5055518;28;20292;-70
2022/05/26 00:29:03;;;;;;;0.93;0.90;;;;;;;15.63;57.55;98568.63;5056379;28;20225;-71
2022/05/26 00:31:30;;;;;;;0.53;0.53;;;;;;;15.75;56.65;98568.59;5055726;28;20209;-70
2022/05/26 00:33:57;;;;;;;0.70;0.70;;;;;;;15.82;56.08;98575.44;5056409;28;20201;-71
2022/05/26 00:36:37;;;;;;;2.73;0.80;;;;;;;15.87;55.65;98574.75;5055596;28;20209;-70
2022/05/26 00:39:08;;;;;;;0.60;0.60;;;;;;;15.91;55.83;98576.69;5056351;28;20232;-70
2022/05/26 00:41:39;;;;;;;1.27;0.63;;;;;;;15.88;56.53;98571.78;5055539;28;20190;-70
2022/05/26 00:44:05;;;;;;;0.60;0.50;;;;;;;15.88;55.82;98576.34;5037883;28;20214;-70
2022/05/26 00:46:43;;;;;;;2.20;0.50;;;;;;;15.86;55.72;98578.44;5056234;28;20205;-70
2022/05/26 00:49:14;;;;;;;0.70;0.70;;;;;;;15.87;55.39;98578.22;5055626;28;20236;-70
2022/05/26 00:51:41;;;;;;;1.80;0.70;;;;;;;15.85;55.37;98577.66;5055020;28;20641;-70
2022/05/26 00:54:18;;;;;;;1.17;0.60;;;;;;;15.84;55.40;98567.97;5055298;28;20202;-70
2022/05/26 00:57:19;;;;;;;1.13;0.53;;;;;;;15.82;55.52;98567.41;5054805;28;20648;-70
2022/05/26 00:59:54;;;;;;;2.27;0.70;;;;;;;15.78;55.81;98570.81;5043871;28;20208;-70
2022/05/26 01:02:25;;;;;;;1.10;0.50;;;;;;;15.77;56.46;98567.31;5054767;28;20569;-70
2022/05/26 01:04:56;;;;;;;2.93;0.70;;;;;;;15.72;56.25;98569.88;5055139;28;20228;-70
2022/05/26 01:07:30;;;;;;;0.93;0.70;;;;;;;15.69;56.32;98567.69;5054603;28;20664;-70
2022/05/26 01:09:57;;;;;;;2.13;0.80;;;;;;;15.69;55.88;98573.03;5054979;28;20189;-70
2022/05/26 01:12:24;;;;;;;1.53;0.63;;;;;;;15.72;55.67;98561.03;5054914;28;20236;-71
2022/05/26 01:14:56;;;;;;;1.07;0.63;;;;;;;15.76;55.86;98563.00;5054865;28;20208;-70
2022/05/26 01:17:34;;;;;;;1.90;0.80;;;;;;;15.73;56.43;98560.78;5054477;28;20243;-70
2022/05/26 01:20:36;;;;;;;1.10;0.60;;;;;;;15.72;55.43;98552.97;5054722;28;20192;-70
2022/05/26 01:23:27;;;;;;;3.13;0.70;;;;;;;15.69;55.25;98562.31;5022319;28;20228;-71
2022/05/26 01:26:18;;;;;;;2.23;0.77;;;;;;;15.63;56.06;98549.88;5054417;28;20644;-70
2022/05/26 01:29:13;;;;;;;0.90;0.60;;;;;;;15.66;55.23;98560.13;5054218;28;20575;-70
2022/05/26 01:31:57;;;;;;;1.53;0.60;;;;;;;15.64;55.42;98558.72;5053675;28;20686;-70
2022/05/26 01:35:03;;;;;;;2.87;0.80;;;;;;;15.62;54.83;98550.94;5054527;28;20208;-71
2022/05/26 01:37:45;;;;;;;1.67;0.50;;;;;;;15.58;55.05;98551.63;5023710;28;20225;-70
2022/05/26 01:40:32;;;;;;;2.00;0.50;;;;;;;15.59;54.50;98550.56;5054068;28;20240;-70
2022/05/26 01:43:41;;;;;;;0.83;0.50;;;;;;;15.56;54.85;98556.44;5054295;28;20213;-70
2022/05/26 01:46:15;;;;;;;1.80;0.70;;;;;;;15.53;55.72;98560.41;5038918;28;20649;-70
2022/05/26 01:49:19;;;;;;;3.50;0.70;;;;;;;15.52;55.66;98561.44;5053342;28;20251;-70
2022/05/26 01:52:07;;;;;;;5.07;0.60;;;;;;;15.51;54.50;98561.69;5052969;28;20216;-70
2022/05/26 01:54:33;;;;;;;0.40;0.40;;;;;;;15.48;55.29;98557.63;5053380;28;20194;-70
2022/05/26 01:57:06;;;;;;;0.93;0.50;;;;;;;15.43;55.15;98554.03;5052954;28;20209;-70
2022/05/26 01:59:38;;;;;;;1.80;0.50;;;;;;;15.37;55.64;98555.78;5053301;28;20189;-70
2022/05/26 02:02:32;;;;;;;0.67;0.50;;;;;;;15.29;56.30;98561.47;5053276;28;20193;-70
2022/05/26 02:05:23;;;;;;;3.83;0.73;;;;;;;15.30;55.05;98557.75;5053721;28;20196;-70
2022/05/26 02:07:55;;;;;;;0.77;0.60;;;;;;;15.25;55.92;98560.31;5034860;28;20699;-70
2022/05/26 02:10:28;;;;;;;0.77;0.50;;;;;;;15.25;55.23;98564.88;5035129;28;20197;-70
2022/05/26 02:13:03;;;;;;;1.93;0.60;;;;;;;15.23;55.75;98562.41;5036296;28;20243;-70
2022/05/26 02:15:38;;;;;;;1.57;0.67;;;;;;;15.18;56.12;98559.63;5053010;28;20196;-70
2022/05/26 02:18:22;;;;;;;2.47;0.60;;;;;;;15.22;55.11;98576.88;5052670;28;20232;-70
2022/05/26 02:21:04;;;;;;;1.70;0.80;;;;;;;15.22;55.73;98562.66;5036328;28;20204;-70
2022/05/26 02:23:37;;;;;;;0.60;0.60;;;;;;;15.21;55.08;98563.72;5052853;28;20235;-70
2022/05/26 02:26:05;;;;;;;3.93;0.60;;;;;;;15.21;55.17;98567.22;5052930;28;20193;-70
2022/05/26 02:29:51;;;;;;;1.83;0.77;;;;;;;15.23;54.82;98559.75;5052472;28;20232;-70
2022/05/26 02:31:23;;;;;;;1.47;0.60;;;;;;;15.27;55.03;98566.25;5052280;28;20205;-70
2022/05/26 02:33:53;;;;;;;0.60;0.60;;;;;;;15.24;55.21;98560.56;5052805;28;20293;-70
2022/05/26 02:36:21;;;;;;;1.43;0.60;;;;;;;15.18;55.43;98565.00;5052770;28;20193;-70
2022/05/26 02:38:47;;;;;;;0.53;0.53;;;;;;;15.25;55.69;98562.19;5053007;28;20244;-70
2022/05/26 02:41:14;;;;;;;1.20;0.57;;;;;;;15.19;55.69;98565.81;5052382;28;20308;-70
2022/05/26 02:43:41;;;;;;;2.57;0.60;;;;;;;15.20;55.86;98557.53;5051486;28;20240;-70
2022/05/26 02:46:26;;;;;;;2.20;0.70;;;;;;;15.18;56.02;98559.63;5052589;28;20213;-70
2022/05/26 02:49:27;;;;;;;1.87;0.60;;;;;;;15.08;56.43;98570.13;4999278;28;1066518;-70
2022/05/26 02:52:21;;;;;;;1.27;0.70;;;;;;;15.00;56.80;98562.47;5053128;28;20562;-71
2022/05/26 02:55:26;;;;;;;1.60;0.70;;;;;;;14.88;57.63;98563.53;5037625;28;20196;-70
2022/05/26 02:58:21;;;;;;;2.50;0.70;;;;;;;14.80;58.08;98566.56;4991905;28;20237;-70
2022/05/26 03:00:54;;;;;;;1.97;0.80;;;;;;;14.77;58.05;98562.47;4992323;28;20206;-70
2022/05/26 03:03:28;;;;;;;3.13;0.70;;;;;;;14.69;58.91;98570.84;5034974;28;20225;-70
2022/05/26 03:06:11;;;;;;;1.33;0.63;;;;;;;14.61;58.85;98568.50;5019857;28;20189;-70
2022/05/26 03:08:40;;;;;;;2.00;0.50;;;;;;;14.41;59.95;98567.22;5053065;28;20240;-70
2022/05/26 03:11:13;;;;;;;0.63;0.60;;;;;;;14.40;59.71;98574.44;5053153;28;20212;-70
2022/05/26 03:13:40;;;;;;;1.17;0.60;;;;;;;14.39;60.25;98574.66;5052634;28;20197;-71
2022/05/26 03:16:07;;;;;;;2.80;0.70;;;;;;;14.40;60.08;98574.44;5053178;28;20216;-70
2022/05/26 03:18:34;;;;;;;0.53;0.53;;;;;;;14.31;60.42;98572.31;5053026;28;20228;-70
2022/05/26 03:21:01;;;;;;;0.93;0.70;;;;;;;14.34;60.37;98577.22;5052757;28;20205;-70
2022/05/26 03:23:29;;;;;;;2.13;0.60;;;;;;;14.33;60.43;98565.69;5053013;28;20224;-70
2022/05/26 03:25:57;;;;;;;0.97;0.57;;;;;;;14.38;60.22;98573.03;5053096;28;20204;-70
2022/05/26 03:28:25;;;;;;;0.97;0.60;;;;;;;14.30;60.45;98571.50;5052616;28;20229;-70
2022/05/26 03:30:52;;;;;;;1.53;0.60;;;;;;;14.32;60.74;98576.63;5052501;28;20201;-70
2022/05/26 03:33:18;;;;;;;2.33;2.13;;;;;;;14.26;60.96;98575.69;5052765;28;20291;-70
2022/05/26 03:41:13;;;;;;;2.90;1.10;;;;;;;14.13;61.44;98578.53;5052722;28;20295;-70
2022/05/26 03:43:47;;;;;;;1.10;1.10;;;;;;;14.07;62.99;98592.78;5052478;28;20268;-70
2022/05/26 03:46:14;;;;;;;1.23;0.90;;;;;;;14.00;62.41;98588.59;5053401;28;20190;-70
2022/05/26 03:48:41;;;;;;;2.73;0.83;;;;;;;14.04;62.24;98592.44;5052331;28;20240;-70
2022/05/26 03:51:08;;;;;;;1.13;0.70;;;;;;;14.05;61.85;98594.06;5052442;28;20205;-71
2022/05/26 03:53:35;;;;;;;1.23;0.97;;;;;;;14.03;62.37;98602.34;5053660;28;20204;-70
2022/05/26 03:56:02;;;;;;;1.40;0.70;;;;;;;14.00;62.44;98589.41;5056391;28;20209;-70
2022/05/26 03:58:29;;;;;;;0.67;0.60;;;;;;;13.95;62.77;98596.47;5056018;28;20231;-70
2022/05/26 04:00:55;;;;;;;2.57;1.00;;;;;;;13.93;62.96;98601.25;5056271;28;20207;-71
2022/05/26 04:03:23;;;;;;;1.73;1.30;;;;;;;13.94;63.67;98600.19;5056148;28;20234;-70
2022/05/26 04:05:49;;;;;;;1.30;1.20;;;;;;;13.96;63.24;98593.59;5055856;28;20208;-70
2022/05/26 04:08:16;;;;;;;2.43;1.63;;;;;;;13.93;63.36;98611.94;5056038;28;20228;-70
2022/05/26 04:10:42;;;;;;;4.03;3.20;;;;;;;13.98;63.02;98614.75;5056040;28;20262;-70
2022/05/26 04:13:09;;;;;;;1.93;1.73;;;;;;;13.98;63.18;98612.88;5055869;28;20212;-70
2022/05/26 04:15:36;;;;;;;2.33;1.40;;;;;;;13.90;64.90;98618.56;5055862;28;20207;-70
2022/05/26 04:18:02;;;;;;;1.03;0.90;;;;;;;13.92;64.55;98627.16;5055426;28;20585;-70
2022/05/26 04:20:29;;;;;;;0.80;0.60;;;;;;;13.96;63.76;98627.50;5055790;28;20566;-70
2022/05/26 04:22:55;;;;;;;1.40;1.00;;;;;;;13.97;64.31;98629.97;5055759;28;20215;-71
2022/05/26 04:25:22;;;;;;;1.10;0.70;;;;;;;14.02;64.29;98631.97;5055505;28;20209;-70
2022/05/26 04:27:49;;;;;;;1.77;1.10;;;;;;;14.11;64.48;98636.75;5055700;28;20235;-70
2022/05/26 04:30:16;;;;;;;1.20;0.97;;;;;;;14.12;64.27;98637.59;5055448;28;20209;-70
2022/05/26 04:32:42;;;;;;;2.87;1.17;;;;;;;14.15;64.15;98637.94;5056012;28;20212;-70
2022/05/26 04:35:10;;;;;;;1.87;0.80;;;;;;;14.26;64.12;98636.38;5055489;28;20216;-70
2022/05/26 04:37:37;;;;;;;1.37;0.70;;;;;;;14.34;63.83;98642.22;5055410;28;20316;-70
2022/05/26 04:40:05;;;;;;;2.57;1.10;;;;;;;14.47;63.49;98642.00;5055401;28;20223;-70
2022/05/26 04:42:32;;;;;;;3.43;0.93;;;;;;;14.50;62.74;98638.88;5055259;28;20207;-70
2022/05/26 04:44:59;;;;;;;2.13;1.03;;;;;;;14.64;62.67;98639.47;5055161;28;20229;-70
2022/05/26 04:47:26;;;;;;;1.10;1.00;;;;;;;14.70;62.41;98644.72;5054881;28;20232;-70
2022/05/26 04:49:52;;;;;;;1.80;0.70;;;;;;;14.76;61.98;98645.69;5055232;28;20285;-70
2022/05/26 04:52:21;;;;;;;1.73;1.10;;;;;;;14.74;62.39;98645.09;5055093;28;20205;-70
2022/05/26 04:54:49;;;;;;;2.37;1.00;;;;;;;14.68;62.25;98646.00;5054867;28;20205;-70
2022/05/26 04:57:18;;;;;;;1.47;0.97;;;;;;;14.60;62.61;98657.06;5054789;28;20570;-70
2022/05/26 04:59:45;;;;;;;1.27;0.87;;;;;;;14.53;63.31;98651.00;5055002;28;20293;-70
2022/05/26 05:02:16;;;;;;;2.87;0.93;;;;;;;14.79;62.07;98651.38;5055426;28;20529;-70
2022/05/26 05:04:44;;;;;;;1.77;0.63;;;;;;;15.08;61.34;98652.34;5054280;28;20216;-70
2022/05/26 05:07:11;;;;;;;2.30;0.90;;;;;;;15.18;61.38;98652.56;5054278;28;20568;-70
2022/05/26 05:09:40;;;;;;;1.90;1.10;;;;;;;15.07;62.13;98656.06;5054464;28;20766;-70
2022/05/26 05:12:08;;;;;;;3.60;1.10;;;;;;;14.93;62.06;98663.50;5054843;28;20205;-70
2022/05/26 05:14:40;;;;;;;4.90;1.30;;;;;;;14.95;63.30;98657.91;5054845;28;20212;-70
2022/05/26 05:17:07;;;;;;;1.40;0.80;;;;;;;15.21;63.12;98663.66;5054623;28;20201;-70
2022/05/26 05:19:33;;;;;;;2.13;0.97;;;;;;;15.72;59.75;98660.22;5054501;28;20205;-70
2022/05/26 05:22:31;;;;;;;1.57;0.80;;;;;;;16.02;58.57;98668.88;5054608;28;20205;-70
2022/05/26 05:25:06;;;;;;;1.33;0.80;;;;;;;16.25;59.58;98674.97;5041237;28;20231;-70
2022/05/26 05:27:41;;;;;;;2.00;1.60;;;;;;;16.40;59.05;98669.91;5037526;28;20229;-70
2022/05/26 05:30:18;;;;;;;1.70;1.10;;;;;;;16.34;58.17;98673.53;5054645;28;20536;-70
2022/05/26 05:32:52;;;;;;;3.77;0.90;;;;;;;15.80;57.84;98674.09;5054528;28;20189;-70
2022/05/26 05:35:33;;;;;;;0.77;0.77;;;;;;;15.97;58.32;98677.63;5036747;28;20219;-70
2022/05/26 05:38:02;;;;;;;1.23;1.03;;;;;;;15.86;58.61;98683.03;5053885;28;20739;-70
2022/05/26 05:40:29;;;;;;;2.43;1.43;;;;;;;16.06;58.51;98681.56;5054149;28;20209;-70
2022/05/26 05:42:55;;;;;;;2.00;1.30;;;;;;;15.98;58.21;98686.50;5054045;28;20208;-70
2022/05/26 05:45:21;;;;;;;1.50;1.30;;;;;;;15.99;59.34;98686.25;5054055;28;20251;-70
2022/05/26 05:47:48;;;;;;;1.37;0.70;;;;;;;15.78;59.67;98688.78;5053887;28;20647;-71
2022/05/26 05:50:14;;;;;;;0.93;0.80;;;;;;;15.85;59.60;98682.22;5054109;28;20292;-71
2022/05/26 05:52:40;;;;;;;2.03;0.80;;;;;;;16.01;58.11;98689.50;5054130;28;20216;-70
2022/05/26 05:55:07;;;;;;;1.53;0.67;;;;;;;16.23;57.81;98692.34;5054041;28;20208;-70
2022/05/26 05:57:34;;;;;;;3.07;1.03;;;;;;;16.41;58.39;98695.69;5053919;28;20221;-70
2022/05/26 06:00:00;;;;;;;2.47;0.83;;;;;;;16.10;58.03;98698.81;5054021;28;20208;-70
2022/05/26 06:02:26;;;;;;;2.10;0.70;;;;;;;16.05;58.34;98695.22;5054803;28;20204;-70
2022/05/26 06:04:53;;;;;;;1.20;0.80;;;;;;;16.02;59.07;98690.34;5053883;28;20236;-70
2022/05/26 06:07:22;;;;;;;4.10;0.83;;;;;;;16.01;59.88;98699.44;5053557;28;20756;-70
2022/05/26 06:09:50;;;;;;;2.47;0.77;;;;;;;16.06;59.34;98700.34;5053850;28;20213;-70
2022/05/26 06:12:16;;;;;;;2.40;0.80;;;;;;;16.01;59.51;98704.81;5053820;28;20205;-70
2022/05/26 06:14:43;;;;;;;1.60;0.90;;;;;;;16.00;60.18;98705.84;5053788;28;20567;-70
2022/05/26 06:17:11;;;;;;;0.80;0.80;;;;;;;16.08;59.39;98706.28;5053274;28;20201;-70
2022/05/26 06:19:38;;;;;;;1.03;0.90;;;;;;;16.19;60.48;98710.00;5053675;28;20208;-71
2022/05/26 06:22:14;;;;;;;1.10;1.00;;;;;;;16.20;59.69;98714.31;5053627;28;20300;-70
2022/05/26 06:24:41;;;;;;;1.63;0.97;;;;;;;16.19;60.88;98716.16;5053557;28;20212;-70
2022/05/26 06:29:51;;;;;;;1.40;0.77;;;;;;;16.12;59.31;98712.00;5052278;28;20324;-71
2022/05/26 06:37:54;;;;;;;0.70;0.70;;;;;;;16.24;59.05;98732.34;5053226;28;20806;-70
2022/05/26 06:40:21;;;;;;;2.67;0.70;;;;;;;16.23;59.00;98730.72;5053038;28;20580;-70
2022/05/26 06:42:49;;;;;;;1.20;0.80;;;;;;;16.32;59.90;98729.28;5053101;28;20216;-70
2022/05/26 06:45:18;;;;;;;1.23;0.70;;;;;;;16.29;59.36;98732.44;5052902;28;20723;-70
2022/05/26 06:47:44;;;;;;;1.40;1.10;;;;;;;16.22;59.36;98729.09;5052826;28;20241;-70
2022/05/26 06:50:12;;;;;;;3.10;1.10;;;;;;;16.32;59.54;98728.47;5053271;28;20201;-70
2022/05/26 06:52:38;;;;;;;3.10;1.60;;;;;;;16.35;59.60;98728.81;5053262;28;20209;-70
2022/05/26 06:55:07;;;;;;;1.97;1.57;;;;;;;16.47;59.38;98732.28;5053259;28;20224;-70
2022/05/26 06:57:33;;;;;;;1.63;1.00;;;;;;;16.52;58.98;98739.63;5053170;28;20232;-70
2022/05/26 07:00:00;;;;;;;2.27;1.20;;;;;;;16.70;60.45;98742.13;5053100;28;20205;-70
2022/05/26 07:02:28;;;;;;;3.23;1.03;;;;;;;16.78;58.69;98747.91;5052865;28;20663;-70
2022/05/26 07:04:55;;;;;;;1.37;0.80;;;;;;;16.74;57.90;98746.75;5053075;28;20319;-70
2022/05/26 07:07:21;;;;;;;1.40;0.80;;;;;;;16.68;58.16;98750.41;5053032;28;20205;-70
2022/05/26 07:09:48;;;;;;;0.87;0.80;;;;;;;16.73;58.65;98753.19;5053049;28;20211;-70
2022/05/26 07:12:14;;;;;;;1.00;0.90;;;;;;;16.76;59.49;98746.53;5053036;28;20205;-70
2022/05/26 07:14:40;;;;;;;2.00;1.00;;;;;;;16.83;57.29;98745.31;5052947;28;20201;-70
2022/05/26 07:17:07;;;;;;;1.00;0.70;;;;;;;17.17;57.11;98757.72;5052781;28;20205;-70
2022/05/26 07:19:35;;;;;;;1.20;1.03;;;;;;;17.49;56.75;98750.75;5052926;28;20221;-70
2022/05/26 07:22:02;;;;;;;1.60;1.50;;;;;;;17.63;54.85;98761.97;5052522;28;20209;-70
2022/05/26 07:24:28;;;;;;;1.70;1.03;;;;;;;17.52;54.52;98768.25;5052764;28;20556;-70
2022/05/26 07:26:55;;;;;;;2.53;0.80;;;;;;;17.56;53.84;98766.72;5052794;28;20572;-70
2022/05/26 07:29:22;;;;;;;1.37;0.70;;;;;;;17.30;54.76;98768.16;5055035;28;20228;-70
2022/05/26 07:31:48;;;;;;;1.40;0.90;;;;;;;17.57;56.07;98758.41;5057213;28;20205;-71
2022/05/26 07:34:15;;;;;;;1.27;1.00;;;;;;;17.61;53.81;98756.84;5056384;28;20676;-69
2022/05/26 07:42:13;;;;;;;2.30;0.73;;;;;;;17.56;54.44;98767.50;5056647;28;20323;-70
2022/05/26 07:44:43;;;;;;;1.70;0.80;;;;;;;17.70;54.55;98766.13;5056337;28;20229;-71
2022/05/26 07:47:10;;;;;;;1.93;0.67;;;;;;;17.71;52.65;98766.94;5056206;28;20211;-70
2022/05/26 07:49:39;;;;;;;2.73;0.80;;;;;;;17.67;53.05;98774.69;5055992;28;20213;-70
2022/05/26 07:52:06;;;;;;;2.30;0.90;;;;;;;17.88;52.84;98765.84;5056409;28;20201;-70
2022/05/26 07:54:33;;;;;;;1.93;0.83;;;;;;;17.70;52.71;98779.56;5055992;28;20580;-70
2022/05/26 07:57:01;;;;;;;3.23;0.93;;;;;;;17.86;53.52;98777.88;5056044;28;20255;-70
2022/05/26 07:59:29;;;;;;;1.17;0.70;;;;;;;17.75;51.82;98790.41;5056592;28;20229;-70
2022/05/26 08:01:56;;;;;;;1.10;0.60;;;;;;;17.63;52.30;98784.28;5056450;28;20208;-70
2022/05/26 08:04:22;;;;;;;2.87;0.90;;;;;;;17.76;53.19;98786.66;5055664;28;20591;-70
2022/05/26 08:06:49;;;;;;;1.10;0.77;;;;;;;17.62;52.68;98785.38;5055991;28;20202;-70
2022/05/26 08:09:18;;;;;;;0.77;0.70;;;;;;;17.73;52.68;98784.44;5056007;28;20312;-70
2022/05/26 08:11:45;;;;;;;1.20;0.60;;;;;;;17.67;52.79;98788.13;5055953;28;20209;-70
2022/05/26 08:14:11;;;;;;;1.87;1.00;;;;;;;17.61;53.24;98791.00;5055938;28;20209;-70
2022/05/26 08:16:39;;;;;;;3.00;1.10;;;;;;;17.41;53.89;98794.16;5055946;28;20217;-70
2022/05/26 08:19:06;;;;;;;2.03;0.90;;;;;;;17.24;54.09;98800.56;5055773;28;20221;-70
2022/05/26 08:21:34;;;;;;;1.93;1.03;;;;;;;17.11;54.79;98800.88;5055659;28;20668;-72
2022/05/26 08:24:01;;;;;;;1.40;0.90;;;;;;;17.04;55.32;98803.72;5055521;28;20212;-70
2022/05/26 08:26:28;;;;;;;1.33;1.07;;;;;;;17.07;55.79;98797.88;5055612;28;20258;-70
2022/05/26 08:28:55;;;;;;;1.57;1.00;;;;;;;17.14;56.30;98803.09;5055298;28;20591;-70
2022/05/26 08:31:23;;;;;;;2.43;0.70;;;;;;;17.11;55.46;98804.41;5055567;28;20212;-70
2022/05/26 08:33:50;;;;;;;1.03;0.87;;;;;;;17.23;56.05;98804.31;5055552;28;20296;-70
2022/05/26 08:36:20;;;;;;;1.40;1.10;;;;;;;17.22;55.97;98794.59;5055503;28;20205;-70
2022/05/26 08:38:47;;;;;;;0.80;0.80;;;;;;;17.31;55.90;98814.66;5055633;28;20229;-70
2022/05/26 08:41:39;;;;;;;1.53;0.80;;;;;;;17.20;54.79;98812.88;5055044;28;20568;-70
2022/05/26 08:44:12;;;;;;;0.60;0.60;;;;;;;17.19;54.71;98814.72;5045879;28;20205;-70
2022/05/26 08:46:46;;;;;;;1.37;0.80;;;;;;;17.24;56.09;98814.00;5054692;28;20530;-70
2022/05/26 08:49:22;;;;;;;1.43;0.77;;;;;;;17.40;55.38;98823.97;5054562;28;20261;-70
2022/05/26 08:51:56;;;;;;;1.40;0.80;;;;;;;17.50;56.09;98819.59;5055004;28;20185;-69
2022/05/26 08:54:34;;;;;;;1.47;0.90;;;;;;;17.66;54.31;98818.78;5055263;28;20196;-70
2022/05/26 08:57:02;;;;;;;2.73;0.90;;;;;;;17.80;53.98;98814.69;5055088;28;20203;-70
2022/05/26 08:59:42;;;;;;;2.13;0.70;;;;;;;17.83;52.98;98816.06;5054885;28;20236;-70
2022/05/26 09:02:23;;;;;;;1.70;0.77;;;;;;;18.13;53.28;98809.22;5054799;28;20194;-70
2022/05/26 09:04:50;;;;;;;2.20;0.70;;;;;;;18.18;52.75;98814.69;5037706;28;20296;-70
2022/05/26 09:12:59;;;;;;;1.50;1.00;;;;;;;18.72;52.75;98808.38;5054598;28;20177;-70
2022/05/26 09:15:28;;;;;;;1.40;0.80;;;;;;;18.54;51.40;98806.00;5054761;28;20185;-70
2022/05/26 09:17:55;;;;;;;2.20;0.90;;;;;;;18.68;53.68;98817.22;5054605;28;20588;-70
2022/05/26 09:20:39;;;;;;;1.93;0.73;;;;;;;18.24;52.45;98818.25;5054614;28;20209;-70
2022/05/26 09:23:08;;;;;;;1.37;0.80;;;;;;;18.20;52.08;98826.03;5054358;28;20633;-70
2022/05/26 09:25:45;;;;;;;1.73;0.70;;;;;;;17.86;53.25;98821.75;5054261;28;20232;-70
2022/05/26 09:28:12;;;;;;;2.27;0.90;;;;;;;17.78;53.66;98814.09;5054352;28;20224;-70
2022/05/26 09:30:39;;;;;;;2.77;0.80;;;;;;;17.81;54.20;98821.69;5054036;28;20215;-70
2022/05/26 09:33:26;;;;;;;1.53;0.70;;;;;;;17.79;53.94;98828.38;5054100;28;20216;-70
2022/05/26 09:35:53;;;;;;;1.27;0.60;;;;;;;17.74;54.28;98821.03;5054446;28;20532;-69
2022/05/26 09:38:20;;;;;;;1.37;0.70;;;;;;;17.54;54.31;98822.59;5053967;28;20240;-70
2022/05/26 09:40:48;;;;;;;1.50;0.80;;;;;;;17.58;56.08;98829.13;5053937;28;20557;-70
2022/05/26 09:43:17;;;;;;;0.80;0.80;;;;;;;17.63;56.16;98835.41;5053853;28;20209;-70
2022/05/26 09:45:48;;;;;;;1.00;0.67;;;;;;;17.74;55.97;98833.69;5053740;28;20231;-70
2022/05/26 09:48:29;;;;;;;2.87;0.77;;;;;;;17.70;54.92;98841.44;5036014;28;20233;-69
2022/05/26 09:51:27;;;;;;;1.27;0.70;;;;;;;17.77;56.15;98847.44;5053637;28;20190;-70
2022/05/26 09:53:55;;;;;;;1.30;0.80;;;;;;;17.79;56.38;98842.66;5053901;28;20197;-70
2022/05/26 09:56:40;;;;;;;2.77;0.70;;;;;;;17.79;54.97;98839.97;5053528;28;20217;-70
2022/05/26 09:59:34;;;;;;;1.70;0.80;;;;;;;17.87;55.04;98846.78;5053511;28;20221;-70
2022/05/26 10:02:14;;;;;;;3.43;0.90;;;;;;;18.02;54.42;98838.94;5053415;28;20255;-70
2022/05/26 10:04:58;;;;;;;1.73;0.77;;;;;;;18.14;54.33;98847.75;5053769;28;20209;-69
2022/05/26 10:07:48;;;;;;;1.13;0.80;;;;;;;18.25;54.70;98844.94;5037220;28;20204;-70
2022/05/26 10:10:33;;;;;;;0.60;0.60;;;;;;;18.01;53.56;98853.47;5038256;28;20192;-70
2022/05/26 10:13:18;;;;;;;3.00;0.90;;;;;;;17.90;53.08;98852.50;5053832;28;20186;-70
2022/05/26 10:15:55;;;;;;;1.17;0.80;;;;;;;18.05;55.32;98847.31;5053307;28;20209;-70
2022/05/26 10:18:56;;;;;;;1.03;0.60;;;;;;;18.12;54.69;98845.28;5054016;28;20252;-70
2022/05/26 10:21:44;;;;;;;1.27;0.90;;;;;;;18.31;53.76;98841.25;5050300;28;20209;-70
2022/05/26 10:24:13;;;;;;;0.97;0.80;;;;;;;18.43;53.04;98847.38;5052949;28;20640;-70
2022/05/26 10:26:40;;;;;;;1.30;0.90;;;;;;;18.34;53.33;98840.78;5053241;28;20330;-70
2022/05/26 10:29:45;;;;;;;0.73;0.73;;;;;;;18.45;53.13;98847.91;5053266;28;20278;-70
2022/05/26 10:32:20;;;;;;;0.93;0.83;;;;;;;18.74;53.99;98843.16;5053264;28;20198;-70
2022/05/26 10:35:13;;;;;;;1.50;0.80;;;;;;;18.86;51.42;98841.16;5053262;28;20276;-70
2022/05/26 10:37:52;;;;;;;1.33;0.70;;;;;;;18.88;52.65;98839.81;5052887;28;20231;-70
2022/05/26 10:40:28;;;;;;;1.83;0.90;;;;;;;18.87;52.15;98848.97;5053073;28;20235;-70
2022/05/26 10:43:15;;;;;;;1.13;0.80;;;;;;;18.56;51.57;98847.00;5052519;28;20641;-70
2022/05/26 10:45:46;;;;;;;1.00;0.80;;;;;;;18.54;52.86;98846.41;5052053;28;20304;-70
2022/05/26 10:48:24;;;;;;;1.80;0.90;;;;;;;18.45;54.25;98845.22;5052431;28;20286;-70
2022/05/26 10:51:02;;;;;;;0.70;0.70;;;;;;;18.37;54.46;98842.97;5052641;28;20650;-70
2022/05/26 10:53:34;;;;;;;0.83;0.70;;;;;;;18.27;53.50;98840.09;5052704;28;20216;-70
2022/05/26 10:56:19;;;;;;;1.00;0.73;;;;;;;18.22;52.88;98842.72;5052660;28;20632;-70
2022/05/26 10:59:09;;;;;;;1.33;0.90;;;;;;;18.17;53.35;98844.53;5053561;28;20235;-69
2022/05/26 11:01:42;;;;;;;1.40;0.77;;;;;;;18.17;53.89;98850.75;5052357;28;20189;-70
2022/05/26 11:04:41;;;;;;;1.97;0.77;;;;;;;18.16;54.80;98850.97;5054334;28;20189;-70
2022/05/26 11:07:16;;;;;;;1.00;0.90;;;;;;;18.19;53.99;98839.72;5006217;28;20205;-70
2022/05/26 11:09:51;;;;;;;1.87;0.70;;;;;;;18.15;54.28;98834.00;5023983;28;20197;-70
2022/05/26 11:12:24;;;;;;;1.00;0.90;;;;;;;18.34;53.97;98840.78;5039802;28;20295;-70
2022/05/26 11:17:46;;;;;;;2.13;0.80;;;;;;;18.48;52.74;98851.97;5057231;28;20208;-70
2022/05/26 11:20:21;;;;;;;1.57;1.00;;;;;;;18.49;52.19;98846.34;5057538;28;20197;-70
2022/05/26 11:22:51;;;;;;;1.70;0.80;;;;;;;18.93;52.57;98847.13;5057160;28;20193;-70
2022/05/26 11:25:31;;;;;;;1.00;0.77;;;;;;;18.80;52.04;98842.13;5056402;28;20228;-70
2022/05/26 11:28:05;;;;;;;1.07;0.97;;;;;;;19.14;52.41;98840.91;5056233;28;20225;-70
2022/05/26 11:36:48;;;;;;;2.87;0.80;;;;;;;18.66;52.97;98836.34;5042031;28;20231;-70
2022/05/26 11:39:42;;;;;;;2.13;0.90;;;;;;;18.58;52.12;98839.47;5045723;28;20231;-71
2022/05/26 11:42:25;;;;;;;1.90;0.90;;;;;;;18.36;53.14;98852.09;5049957;28;20202;-70
2022/05/26 11:45:19;;;;;;;1.00;0.80;;;;;;;18.32;54.27;98850.13;5056119;28;20365;-71
2022/05/26 11:47:50;;;;;;;1.67;0.80;;;;;;;18.51;53.74;98848.81;5055848;28;20233;-70
2022/05/26 11:50:22;;;;;;;0.87;0.80;;;;;;;18.32;52.90;98850.13;5055936;28;20201;-70
2022/05/26 11:52:55;;;;;;;0.80;0.80;;;;;;;18.75;54.18;98840.22;5056303;28;20213;-70
2022/05/26 11:55:54;;;;;;;0.90;0.90;;;;;;;18.83;53.45;98847.03;5056040;28;20318;-70
2022/05/26 11:58:38;;;;;;;3.03;1.07;;;;;;;18.68;52.25;98836.88;5055599;28;20708;-70
2022/05/26 12:01:35;;;;;;;1.10;1.00;;;;;;;18.67;53.26;98837.13;5055743;28;20220;-70
2022/05/26 12:04:05;;;;;;;1.60;0.80;;;;;;;18.63;53.63;98841.38;5056046;28;20247;-70
2022/05/26 12:06:38;;;;;;;1.70;0.83;;;;;;;18.54;53.79;98846.41;5055786;28;20218;-70
2022/05/26 12:09:06;;;;;;;1.27;0.83;;;;;;;18.37;54.53;98842.16;5055451;28;20228;-71
2022/05/26 12:11:54;;;;;;;1.87;0.83;;;;;;;18.22;56.66;98844.59;5055672;28;20209;-70
2022/05/26 12:14:47;;;;;;;1.07;0.90;;;;;;;18.14;54.83;98851.22;5055498;28;20193;-70
2022/05/26 12:17:32;;;;;;;3.00;0.90;;;;;;;18.18;57.15;98848.88;5047423;28;20205;-70
2022/05/26 12:20:11;;;;;;;2.33;1.03;;;;;;;18.24;56.76;98848.66;5055745;28;20259;-71
2022/05/26 12:22:52;;;;;;;1.10;1.00;;;;;;;18.09;57.28;98850.34;5055243;28;20295;-71
2022/05/26 12:25:32;;;;;;;2.87;1.10;;;;;;;17.97;58.61;98850.44;5055296;28;20221;-70
2022/05/26 12:28:11;;;;;;;2.20;1.07;;;;;;;17.97;57.88;98844.25;5055285;28;20229;-71
2022/05/26 12:30:48;;;;;;;2.70;1.10;;;;;;;18.03;57.34;98849.47;5055120;28;20212;-70
2022/05/26 12:33:20;;;;;;;2.67;1.10;;;;;;;18.17;57.01;98855.28;5055208;28;20215;-70
2022/05/26 12:36:18;;;;;;;3.87;1.23;;;;;;;18.30;56.98;98839.63;5055242;28;20201;-71
2022/05/26 12:38:44;;;;;;;1.73;1.17;;;;;;;18.30;56.45;98836.94;5055468;28;20332;-71